Time;durP1;ratioP1;P1;durP2;ratioP2;P2;SDS_P1;SDS_P2;PMS_P1;PMS_P2;Temp;Humidity;BMP_temperature;BMP_pressure;BME280_temperature;BME280_humidity;BME280_pressure;Samples;Min_cycle;Max_cycle;Signal;HPM_P1;HPM_P2
2022/09/01 00:01:41;;;;;;;4.70;3.60;;;15.20;99.90;;;;;;5083110;28;20328;-70
2022/09/01 00:04:11;;;;;;;5.27;3.80;;;15.10;99.90;;;;;;5060857;28;20215;-71
2022/09/01 00:06:39;;;;;;;5.63;3.50;;;15.10;99.90;;;;;;5077964;28;20307;-71
2022/09/01 00:09:10;;;;;;;5.67;3.30;;;14.90;99.90;;;;;;5063556;28;20247;-70
2022/09/01 00:11:39;;;;;;;7.30;3.47;;;15.00;99.90;;;;;;5062531;28;20196;-70
2022/09/01 00:14:09;;;;;;;6.57;3.50;;;15.10;99.90;;;;;;5079322;28;20200;-72
2022/09/01 00:16:57;;;;;;;3.93;3.10;;;14.90;99.90;;;;;;5081183;28;20212;-71
2022/09/01 00:19:24;;;;;;;4.67;3.47;;;14.80;99.90;;;;;;5063932;28;20216;-71
2022/09/01 00:21:51;;;;;;;5.57;3.80;;;14.80;99.90;;;;;;5079242;28;20223;-70
2022/09/01 00:24:18;;;;;;;3.93;3.27;;;14.50;99.90;;;;;;5055640;28;20212;-71
2022/09/01 00:26:46;;;;;;;6.67;3.80;;;14.60;99.90;;;;;;5064741;28;20207;-71
2022/09/01 00:29:14;;;;;;;6.23;3.70;;;15.10;99.90;;;;;;5081270;28;20242;-72
2022/09/01 00:31:41;;;;;;;5.80;3.70;;;14.90;99.90;;;;;;5060831;28;20196;-70
2022/09/01 00:34:08;;;;;;;7.43;3.73;;;14.70;99.90;;;;;;5056875;28;20227;-70
2022/09/01 00:36:35;;;;;;;5.80;4.00;;;14.70;99.90;;;;;;5077470;28;20223;-71
2022/09/01 00:39:03;;;;;;;5.07;3.40;;;;;;;;;;5059687;28;20200;-71
2022/09/01 00:41:33;;;;;;;5.57;4.07;;;14.50;99.90;;;;;;5065524;28;20261;-71
2022/09/01 00:44:04;;;;;;;4.43;3.63;;;14.50;99.90;;;;;;5075553;28;20200;-69
2022/09/01 00:46:34;;;;;;;4.10;3.70;;;14.50;99.90;;;;;;5071859;28;20216;-70
2022/09/01 00:49:25;;;;;;;7.27;4.10;;;14.50;99.90;;;;;;5079533;28;20688;-69
2022/09/01 00:51:57;;;;;;;4.37;3.70;;;14.50;99.90;;;;;;5075685;28;20707;-69
2022/09/01 00:54:29;;;;;;;6.37;4.10;;;14.50;99.90;;;;;;5074415;28;20215;-70
2022/09/01 00:56:57;;;;;;;5.67;3.83;;;14.50;99.90;;;;;;5077588;28;20676;-71
2022/09/01 00:59:25;;;;;;;8.97;4.33;;;14.40;99.90;;;;;;5074424;28;20653;-71
2022/09/01 01:01:53;;;;;;;4.63;3.63;;;14.40;99.90;;;;;;5074729;28;20447;-71
2022/09/01 01:04:21;;;;;;;5.83;4.43;;;14.40;99.90;;;;;;5073005;28;20212;-71
2022/09/01 01:06:57;;;;;;;6.03;3.90;;;14.40;99.90;;;;;;5076199;28;20656;-71
2022/09/01 01:09:28;;;;;;;5.80;3.73;;;14.30;99.90;;;;;;5066356;28;20606;-71
2022/09/01 01:11:58;;;;;;;6.30;3.83;;;14.30;99.90;;;;;;5059268;28;20671;-71
2022/09/01 01:14:30;;;;;;;5.37;3.90;;;14.30;99.90;;;;;;5058998;28;20220;-71
2022/09/01 01:16:59;;;;;;;8.63;4.40;;;14.30;99.90;;;;;;5076178;28;20683;-70
2022/09/01 01:23:02;;;;;;;7.37;4.10;;;14.30;99.90;;;;;;5071434;28;20251;-70
2022/09/01 01:25:31;;;;;;;5.33;4.23;;;14.20;99.90;;;;;;5063545;28;20212;-71
2022/09/01 01:28:17;;;;;;;4.30;3.90;;;14.10;99.90;;;;;;5057561;28;20667;-69
2022/09/01 01:30:50;;;;;;;5.80;4.30;;;14.10;99.90;;;;;;5074477;28;20548;-71
2022/09/01 01:33:20;;;;;;;6.30;4.60;;;14.10;99.90;;;;;;5058718;28;20261;-71
2022/09/01 01:35:51;;;;;;;8.20;4.10;;;14.10;99.90;;;;;;5065739;28;20298;-70
2022/09/01 01:38:22;;;;;;;7.53;4.60;;;14.10;99.90;;;;;;5081211;28;20297;-71
2022/09/01 01:40:50;;;;;;;6.67;4.67;;;14.00;99.90;;;;;;5079237;28;20664;-71
2022/09/01 01:43:21;;;;;;;6.90;4.97;;;14.00;99.90;;;;;;5075387;28;20216;-71
2022/09/01 01:45:52;;;;;;;5.80;4.83;;;14.00;99.90;;;;;;5060124;28;20699;-72
2022/09/01 01:48:23;;;;;;;5.37;4.53;;;14.00;99.90;;;;;;5057952;28;20224;-71
2022/09/01 01:50:56;;;;;;;5.90;5.03;;;14.00;99.90;;;;;;5083253;28;20208;-70
2022/09/01 01:53:24;;;;;;;7.10;4.23;;;13.90;99.90;;;;;;5073917;28;20268;-72
2022/09/01 01:55:51;;;;;;;9.77;5.10;;;13.90;99.90;;;;;;5077649;28;20210;-71
2022/09/01 01:58:20;;;;;;;7.70;5.43;;;13.90;99.90;;;;;;5080085;28;20208;-71
2022/09/01 02:00:50;;;;;;;7.13;5.60;;;13.90;99.90;;;;;;5085422;28;20327;-72
2022/09/01 02:03:20;;;;;;;8.00;6.63;;;13.80;99.90;;;;;;5081973;28;20682;-71
2022/09/01 02:05:50;;;;;;;10.70;8.63;;;14.20;99.90;;;;;;5082831;28;20208;-71
2022/09/01 02:08:19;;;;;;;11.63;9.77;;;14.00;99.90;;;;;;5079342;28;20238;-71
2022/09/01 02:10:49;;;;;;;18.33;11.87;;;13.90;99.90;;;;;;5081628;28;20253;-71
2022/09/01 02:13:18;;;;;;;16.63;10.53;;;13.80;99.90;;;;;;5079387;28;20216;-72
2022/09/01 02:15:52;;;;;;;14.83;11.07;;;14.00;99.90;;;;;;5078899;28;20555;-70
2022/09/01 02:18:27;;;;;;;12.50;9.83;;;14.40;99.90;;;;;;5085807;28;20298;-71
2022/09/01 02:20:57;;;;;;;11.40;8.30;;;13.70;99.90;;;;;;5066170;28;20732;-71
2022/09/01 02:23:24;;;;;;;7.93;7.13;;;13.60;99.90;;;;;;5079563;28;20285;-70
2022/09/01 02:25:59;;;;;;;8.40;7.10;;;13.50;99.90;;;;;;5067240;28;20215;-71
2022/09/01 02:28:48;;;;;;;9.40;6.43;;;13.50;99.90;;;;;;5083680;28;20235;-72
2022/09/01 02:31:22;;;;;;;9.13;5.73;;;13.40;99.90;;;;;;5060498;28;20710;-72
2022/09/01 02:33:49;;;;;;;9.90;6.63;;;13.40;99.90;;;;;;5060041;28;20203;-71
2022/09/01 02:36:18;;;;;;;7.20;5.70;;;13.50;99.90;;;;;;5075850;28;20235;-70
2022/09/01 02:38:47;;;;;;;7.10;6.37;;;13.50;99.90;;;;;;5085314;28;20261;-71
2022/09/01 02:41:26;;;;;;;6.63;5.97;;;13.50;99.90;;;;;;5079189;28;20580;-70
2022/09/01 02:43:53;;;;;;;9.17;6.10;;;13.50;99.90;;;;;;5079711;28;20214;-72
2022/09/01 02:46:22;;;;;;;6.93;5.87;;;13.70;99.90;;;;;;5062754;28;20219;-71
2022/09/01 02:48:51;;;;;;;13.07;6.03;;;13.40;99.90;;;;;;5062208;28;20254;-70
2022/09/01 02:51:21;;;;;;;9.87;6.07;;;13.40;99.90;;;;;;5063209;28;20226;-72
2022/09/01 02:53:51;;;;;;;10.40;6.80;;;13.30;99.90;;;;;;5062004;28;20743;-71
2022/09/01 02:56:24;;;;;;;9.30;6.30;;;13.30;99.90;;;;;;5075922;28;20261;-71
2022/09/01 02:58:52;;;;;;;7.97;6.00;;;13.20;99.90;;;;;;5076348;28;20315;-71
2022/09/01 03:01:24;;;;;;;7.50;5.73;;;13.60;99.90;;;;;;5068772;28;20229;-72
2022/09/01 03:03:54;;;;;;;6.90;5.73;;;13.20;99.90;;;;;;5078121;28;20207;-72
2022/09/01 03:06:23;;;;;;;8.43;5.93;;;13.20;99.90;;;;;;5076374;28;20526;-71
2022/09/01 03:08:53;;;;;;;9.33;5.60;;;13.10;99.90;;;;;;5083278;28;20349;-71
2022/09/01 03:11:23;;;;;;;9.47;5.63;;;13.10;99.90;;;;;;5076631;28;20212;-71
2022/09/01 03:13:51;;;;;;;8.33;6.37;;;13.10;99.90;;;;;;5079098;28;20639;-71
2022/09/01 03:16:18;;;;;;;8.23;5.33;;;13.40;99.90;;;;;;5076351;28;20548;-72
2022/09/01 03:18:46;;;;;;;6.47;5.60;;;13.10;99.90;;;;;;5080961;28;20230;-71
2022/09/01 03:21:14;;;;;;;8.33;5.80;;;13.00;99.90;;;;;;5067659;28;20217;-70
2022/09/01 03:23:44;;;;;;;8.67;5.93;;;13.00;99.90;;;;;;5059397;28;20219;-71
2022/09/01 03:26:12;;;;;;;9.67;6.67;;;13.10;99.90;;;;;;5079281;28;20251;-71
2022/09/01 03:28:40;;;;;;;8.30;6.83;;;12.90;99.90;;;;;;5064288;28;20353;-72
2022/09/01 03:31:07;;;;;;;6.83;5.77;;;13.10;99.90;;;;;;5079909;28;20534;-70
2022/09/01 03:33:35;;;;;;;8.00;5.97;;;13.10;99.90;;;;;;5063174;28;20659;-71
2022/09/01 03:36:04;;;;;;;7.43;5.87;;;13.00;99.90;;;;;;5066374;28;20313;-70
2022/09/01 03:38:42;;;;;;;7.60;6.00;;;13.00;99.90;;;;;;5085750;28;20280;-71
2022/09/01 03:41:11;;;;;;;8.43;5.70;;;12.90;99.90;;;;;;5081063;28;20206;-70
2022/09/01 03:43:39;;;;;;;6.30;5.60;;;12.90;99.90;;;;;;5077242;28;20235;-71
2022/09/01 03:46:20;;;;;;;7.50;5.70;;;12.80;99.90;;;;;;5079291;28;20252;-70
2022/09/01 03:48:54;;;;;;;8.27;5.63;;;12.90;99.90;;;;;;5076916;28;20234;-71
2022/09/01 03:51:23;;;;;;;7.20;5.80;;;12.80;99.90;;;;;;5062481;28;20219;-71
2022/09/01 03:53:55;;;;;;;7.27;5.97;;;12.90;99.90;;;;;;5075878;28;20206;-71
2022/09/01 03:56:26;;;;;;;6.07;5.47;;;12.80;99.90;;;;;;5058878;28;20199;-70
2022/09/01 03:58:59;;;;;;;7.40;6.00;;;13.00;99.90;;;;;;5078024;28;20215;-74
2022/09/01 04:01:28;;;;;;;9.77;6.17;;;12.70;99.90;;;;;;5064617;28;20206;-71
2022/09/01 04:03:55;;;;;;;6.33;5.73;;;12.90;99.90;;;;;;5062739;28;20206;-71
2022/09/01 04:06:23;;;;;;;7.10;5.93;;;12.90;99.90;;;;;;5074625;28;20234;-71
2022/09/01 04:09:01;;;;;;;8.13;5.97;;;12.90;99.90;;;;;;5075177;28;20222;-72
2022/09/01 04:11:30;;;;;;;11.53;5.93;;;12.80;99.90;;;;;;5081427;28;20221;-71
2022/09/01 04:13:58;;;;;;;8.47;5.63;;;12.60;99.90;;;;;;5076290;28;20780;-71
2022/09/01 04:19:18;;;;;;;8.20;5.67;;;12.70;99.90;;;;;;5076099;28;20214;-70
2022/09/01 04:21:51;;;;;;;8.40;5.77;;;12.60;99.90;;;;;;5081985;28;20892;-71
2022/09/01 04:24:19;;;;;;;7.57;6.17;;;12.60;99.90;;;;;;5076731;28;20219;-71
2022/09/01 04:26:48;;;;;;;7.13;6.43;;;12.60;99.90;;;;;;5072668;28;20234;-72
2022/09/01 04:29:18;;;;;;;6.73;6.03;;;12.60;99.90;;;;;;5080025;28;20245;-71
2022/09/01 04:31:50;;;;;;;8.50;6.33;;;12.60;99.90;;;;;;5076486;28;20209;-71
2022/09/01 04:34:22;;;;;;;8.57;6.87;;;12.50;99.90;;;;;;5063422;28;20216;-72
2022/09/01 04:36:53;;;;;;;14.47;6.67;;;12.50;99.90;;;;;;5076521;28;20219;-71
2022/09/01 04:39:21;;;;;;;8.63;5.23;;;12.50;99.90;;;;;;5074594;28;20214;-71
2022/09/01 04:41:49;;;;;;;8.90;6.17;;;12.60;99.90;;;;;;5074891;28;20336;-71
2022/09/01 04:44:17;;;;;;;10.40;6.47;;;12.50;99.90;;;;;;5080227;28;20217;-70
2022/09/01 04:46:49;;;;;;;6.80;6.10;;;12.40;99.90;;;;;;5080972;28;20745;-70
2022/09/01 04:49:20;;;;;;;8.87;6.30;;;12.40;99.90;;;;;;5081891;28;20275;-71
2022/09/01 04:51:50;;;;;;;7.40;6.23;;;12.40;99.90;;;;;;5061853;28;20311;-70
2022/09/01 04:54:21;;;;;;;6.73;6.03;;;12.40;99.90;;;;;;5081539;28;20577;-72
2022/09/01 04:56:49;;;;;;;6.83;6.10;;;12.40;99.90;;;;;;5077882;28;20287;-71
2022/09/01 04:59:20;;;;;;;5.73;4.83;;;12.40;99.90;;;;;;5065270;28;20210;-71
2022/09/01 05:01:49;;;;;;;8.37;7.00;;;12.40;99.90;;;;;;5067317;28;20213;-71
2022/09/01 05:04:18;;;;;;;7.90;5.93;;;12.40;99.90;;;;;;5081631;28;20207;-71
2022/09/01 05:06:48;;;;;;;7.67;6.87;;;12.40;99.90;;;;;;5061500;28;20579;-71
2022/09/01 05:09:17;;;;;;;7.93;6.20;;;12.50;99.90;;;;;;5082314;28;20319;-71
2022/09/01 05:11:47;;;;;;;9.80;6.17;;;12.40;99.90;;;;;;5076596;28;20658;-71
2022/09/01 05:14:17;;;;;;;6.53;5.80;;;12.50;99.90;;;;;;5086916;28;20666;-71
2022/09/01 05:16:45;;;;;;;7.57;6.20;;;12.50;99.90;;;;;;5077922;28;20239;-71
2022/09/01 05:19:16;;;;;;;6.77;6.07;;;12.50;99.90;;;;;;5070542;28;20233;-71
2022/09/01 05:21:45;;;;;;;7.90;5.53;;;12.60;99.90;;;;;;5059631;28;20226;-72
2022/09/01 05:24:18;;;;;;;10.27;6.37;;;12.60;99.90;;;;;;5083119;28;20214;-72
2022/09/01 05:26:46;;;;;;;9.17;6.57;;;12.60;99.90;;;;;;5082984;28;20636;-71
2022/09/01 05:29:16;;;;;;;5.60;5.10;;;12.70;99.90;;;;;;5089000;28;20311;-70
2022/09/01 05:31:46;;;;;;;5.97;5.20;;;12.90;99.90;;;;;;5081778;28;20237;-71
2022/09/01 05:34:25;;;;;;;6.37;5.77;;;12.80;99.90;;;;;;5075070;28;20215;-71
2022/09/01 05:36:58;;;;;;;6.97;5.30;;;12.90;99.90;;;;;;5083181;28;20221;-71
2022/09/01 05:39:26;;;;;;;6.47;5.50;;;13.00;99.90;;;;;;5077747;28;20207;-71
2022/09/01 05:41:53;;;;;;;5.70;5.10;;;13.00;99.90;;;;;;5076425;28;20214;-71
2022/09/01 05:44:24;;;;;;;5.73;5.17;;;13.10;99.90;;;;;;5078421;28;20217;-72
2022/09/01 05:46:54;;;;;;;6.23;5.63;;;13.20;99.90;;;;;;5080836;28;20202;-70
2022/09/01 05:49:23;;;;;;;8.27;4.80;;;13.20;99.90;;;;;;5075924;28;20700;-72
2022/09/01 05:51:51;;;;;;;8.40;5.63;;;13.30;99.90;;;;;;5060557;28;20216;-70
2022/09/01 05:54:26;;;;;;;8.97;4.80;;;13.40;99.90;;;;;;5074307;28;20247;-72
2022/09/01 05:57:02;;;;;;;8.73;5.23;;;13.50;99.90;;;;;;5073370;28;20628;-72
2022/09/01 05:59:52;;;;;;;6.50;5.20;;;13.60;99.90;;;;;;5067671;28;20212;-72
2022/09/01 06:02:22;;;;;;;7.13;5.20;;;13.60;99.90;;;;;;5077490;28;20203;-72
2022/09/01 06:04:51;;;;;;;9.27;5.87;;;13.80;99.90;;;;;;5072845;28;20216;-71
2022/09/01 06:07:18;;;;;;;6.20;4.77;;;14.00;99.90;;;;;;5070020;28;20665;-72
2022/09/01 06:09:52;;;;;;;7.63;6.40;;;14.10;99.90;;;;;;5079727;28;20597;-72
2022/09/01 06:12:23;;;;;;;6.83;4.80;;;14.10;99.90;;;;;;5063020;28;20215;-73
2022/09/01 06:14:55;;;;;;;5.57;4.90;;;14.20;99.90;;;;;;5094435;22;20192;-84
2022/09/01 06:17:27;;;;;;;6.57;4.33;;;14.20;99.90;;;;;;5035969;28;20657;-82
2022/09/01 06:20:09;;;;;;;11.27;4.47;;;14.30;99.90;;;;;;5045840;28;20200;-82
2022/09/01 06:22:37;;;;;;;5.93;5.00;;;15.00;99.90;;;;;;5042619;28;20246;-82
2022/09/01 06:25:08;;;;;;;5.93;4.33;;;14.50;99.90;;;;;;5045860;28;20193;-83
2022/09/01 06:27:43;;;;;;;4.60;4.20;;;14.60;99.90;;;;;;5012829;28;20225;-84
2022/09/01 06:30:44;;;;;;;4.20;3.80;;;15.20;99.90;;;;;;5016597;28;20265;-81
2022/09/01 06:33:15;;;;;;;8.40;4.17;;;14.80;99.90;;;;;;5017930;28;20207;-80
2022/09/01 06:35:46;;;;;;;10.30;4.73;;;15.90;99.90;;;;;;5028590;28;20206;-79
2022/09/01 06:38:16;;;;;;;4.40;3.50;;;16.40;99.90;;;;;;5007864;28;20209;-81
2022/09/01 06:40:47;;;;;;;6.43;3.83;;;17.10;99.90;;;;;;5024170;28;20275;-82
2022/09/01 06:43:24;;;;;;;5.15;3.50;;;18.80;99.90;;;;;;5032393;28;20214;-81
2022/09/01 06:45:53;;;;;;;5.50;3.63;;;19.00;99.90;;;;;;5012502;28;20209;-84
2022/09/01 06:48:25;;;;;;;4.50;2.90;;;19.80;99.90;;;;;;5034426;28;20201;-81
2022/09/01 06:51:03;;;;;;;4.60;3.15;;;20.70;99.90;;;;;;5038692;28;20221;-81
2022/09/01 06:53:51;;;;;;;4.47;3.35;;;21.50;99.90;;;;;;5025905;28;20267;-82
2022/09/01 06:56:21;;;;;;;6.78;3.30;;;22.40;99.90;;;;;;5021153;28;20241;-81
2022/09/01 06:58:52;;;;;;;3.78;2.63;;;22.40;99.90;;;;;;5021058;28;20292;-82
2022/09/01 07:01:26;;;;;;;6.70;3.00;;;23.70;99.90;;;;;;5016670;28;20264;-81
2022/09/01 07:03:58;;;;;;;6.10;3.25;;;23.70;99.90;;;;;;5024683;28;20208;-82
2022/09/01 07:06:35;;;;;;;4.47;2.50;;;24.30;99.90;;;;;;5017287;28;20518;-80
2022/09/01 07:09:24;;;;;;;6.75;3.28;;;24.90;99.90;;;;;;5023604;28;20221;-83
2022/09/01 07:12:12;;;;;;;3.55;2.53;;;25.70;99.90;;;;;;5022179;28;20209;-82
2022/09/01 07:14:57;;;;;;;3.60;2.53;;;;;;;;;;5019072;28;20202;-80
2022/09/01 07:17:49;;;;;;;7.88;2.40;;;;;;;;;;5015398;28;20765;-81
2022/09/01 07:20:38;;;;;;;4.75;2.53;;;26.60;99.90;;;;;;5028214;28;20202;-82
2022/09/01 07:23:26;;;;;;;4.05;2.47;;;27.60;99.90;;;;;;5034452;28;20193;-81
2022/09/01 07:25:57;;;;;;;4.65;2.60;;;27.40;99.90;;;;;;5013389;28;20229;-80
2022/09/01 07:28:31;;;;;;;6.13;2.40;;;27.50;99.40;;;;;;5035082;28;20248;-82
2022/09/01 07:31:24;;;;;;;3.63;2.03;;;;;;;;;;5020562;28;20230;-82
2022/09/01 07:34:16;;;;;;;2.83;1.77;;;27.90;96.70;;;;;;5028159;28;20209;-81
2022/09/01 07:37:03;;;;;;;4.00;1.88;;;27.80;95.60;;;;;;5037299;28;20220;-81
2022/09/01 07:39:50;;;;;;;3.58;2.28;;;28.00;95.50;;;;;;5018945;28;20217;-83
2022/09/01 07:42:18;;;;;;;4.20;2.13;;;28.20;95.20;;;;;;5032583;28;20209;-81
2022/09/01 07:45:07;;;;;;;3.03;2.40;;;28.30;94.30;;;;;;5024511;28;20202;-82
2022/09/01 07:47:58;;;;;;;3.53;1.98;;;28.40;93.80;;;;;;5029691;28;20317;-81
2022/09/01 07:50:27;;;;;;;5.13;2.20;;;28.70;93.10;;;;;;5017335;28;20229;-81
2022/09/01 07:53:28;;;;;;;3.75;2.10;;;28.80;92.50;;;;;;5038013;28;20871;-80
2022/09/01 07:55:57;;;;;;;6.43;2.63;;;29.00;91.90;;;;;;5017454;28;20948;-80
2022/09/01 07:58:32;;;;;;;3.28;1.58;;;29.00;92.00;;;;;;5032039;28;20210;-80
2022/09/01 08:01:01;;;;;;;4.82;1.40;;;29.10;90.60;;;;;;5021368;28;20678;-81
2022/09/01 08:03:29;;;;;;;3.45;1.67;;;29.20;88.50;;;;;;5034901;28;20264;-80
2022/09/01 08:06:06;;;;;;;4.07;1.73;;;29.10;87.50;;;;;;5032358;28;20213;-82
2022/09/01 08:08:37;;;;;;;2.25;1.67;;;29.20;87.70;;;;;;5032075;28;20205;-79
2022/09/01 08:11:04;;;;;;;4.68;1.95;;;28.90;87.70;;;;;;5015823;28;20698;-80
2022/09/01 08:13:37;;;;;;;3.30;1.35;;;28.80;86.90;;;;;;5027219;28;20225;-82
2022/09/01 08:16:11;;;;;;;3.55;1.65;;;28.70;85.60;;;;;;5025997;28;20233;-81
2022/09/01 08:18:51;;;;;;;2.15;1.50;;;28.40;84.90;;;;;;5031547;28;20209;-81
2022/09/01 08:21:23;;;;;;;3.17;1.48;;;28.30;84.90;;;;;;5015133;28;20776;-79
2022/09/01 08:23:52;;;;;;;4.85;1.70;;;28.30;85.20;;;;;;5037132;28;20666;-82
2022/09/01 08:26:22;;;;;;;2.47;1.52;;;28.20;83.70;;;;;;5033111;28;20226;-81
2022/09/01 08:28:50;;;;;;;5.30;1.85;;;28.20;83.60;;;;;;5038108;28;20202;-82
2022/09/01 08:31:22;;;;;;;2.65;1.55;;;28.30;83.40;;;;;;5032110;28;20283;-81
2022/09/01 08:33:51;;;;;;;4.50;1.75;;;28.20;83.60;;;;;;5036043;28;20558;-81
2022/09/01 08:36:19;;;;;;;3.33;1.40;;;28.10;83.60;;;;;;5039129;28;20218;-82
2022/09/01 08:38:52;;;;;;;7.07;1.60;;;28.30;83.30;;;;;;5043677;28;20198;-83
2022/09/01 08:41:46;;;;;;;5.00;1.60;;;28.40;82.20;;;;;;5041860;28;20226;-80
2022/09/01 08:45:02;;;;;;;5.20;1.55;;;28.40;81.40;;;;;;5035361;28;20246;-82
2022/09/01 08:47:30;;;;;;;3.80;1.58;;;28.40;82.20;;;;;;5039092;28;20204;-80
2022/09/01 08:50:27;;;;;;;2.90;1.15;;;28.40;81.10;;;;;;5040509;28;20213;-82
2022/09/01 08:53:16;;;;;;;2.10;1.00;;;28.30;79.90;;;;;;5039161;28;20208;-82
2022/09/01 08:55:46;;;;;;;2.30;1.00;;;28.10;79.70;;;;;;5043836;28;20214;-81
2022/09/01 08:58:17;;;;;;;1.63;0.82;;;27.70;80.30;;;;;;5017985;28;20217;-81
2022/09/01 09:00:55;;;;;;;4.22;1.02;;;27.40;79.60;;;;;;5012395;28;20667;-83
2022/09/01 09:03:41;;;;;;;7.32;1.80;;;27.40;80.20;;;;;;5031938;28;20236;-84
2022/09/01 09:06:39;;;;;;;2.03;1.23;;;27.50;80.30;;;;;;5039903;28;20588;-84
2022/09/01 09:09:08;;;;;;;1.35;0.80;;;28.30;77.80;;;;;;5017839;28;20248;-84
2022/09/01 09:11:57;;;;;;;3.97;1.05;;;27.90;77.80;;;;;;5025821;28;20236;-84
2022/09/01 09:14:49;;;;;;;4.43;1.10;;;27.60;77.60;;;;;;5008264;28;20256;-83
2022/09/01 09:17:21;;;;;;;2.58;1.00;;;27.40;77.70;;;;;;5010592;28;20194;-81
2022/09/01 09:19:48;;;;;;;6.47;1.52;;;27.40;78.60;;;;;;5034050;28;20706;-82
2022/09/01 09:22:19;;;;;;;3.33;1.00;;;27.40;79.40;;;;;;5016049;28;20206;-84
2022/09/01 09:24:51;;;;;;;2.50;1.13;;;27.40;78.50;;;;;;5036920;28;20233;-82
2022/09/01 09:27:39;;;;;;;11.43;1.85;;;27.20;79.20;;;;;;5030261;28;20222;-80
2022/09/01 09:30:27;;;;;;;5.22;1.40;;;27.10;78.20;;;;;;5021924;28;20232;-82
2022/09/01 09:33:06;;;;;;;1.88;1.00;;;27.10;78.30;;;;;;5010666;28;20202;-84
2022/09/01 09:35:56;;;;;;;2.55;0.88;;;26.80;79.10;;;;;;5029518;28;20230;-82
2022/09/01 09:38:32;;;;;;;5.55;1.08;;;26.80;78.20;;;;;;5012394;28;20209;-82
2022/09/01 09:41:02;;;;;;;4.57;1.05;;;26.70;77.10;;;;;;5013138;28;20225;-81
2022/09/01 09:43:57;;;;;;;1.77;1.00;;;26.70;77.90;;;;;;5029639;28;20733;-82
2022/09/01 09:46:33;;;;;;;4.20;0.93;;;26.70;78.80;;;;;;5031190;28;20667;-85
2022/09/01 09:49:12;;;;;;;2.60;0.80;;;26.60;77.90;;;;;;5012263;28;20255;-82
2022/09/01 09:51:46;;;;;;;2.15;1.20;;;26.60;76.90;;;;;;5021852;28;20241;-80
2022/09/01 09:54:26;;;;;;;3.45;1.00;;;26.50;77.00;;;;;;5010252;28;20215;-81
2022/09/01 09:57:02;;;;;;;1.25;1.08;;;26.50;76.50;;;;;;5009954;28;20296;-82
2022/09/01 09:59:38;;;;;;;2.50;1.20;;;26.60;77.50;;;;;;5024786;28;20222;-83
2022/09/01 10:02:42;;;;;;;1.58;1.00;;;26.50;77.30;;;;;;5027293;28;20206;-82
2022/09/01 10:05:47;;;;;;;3.78;1.30;;;26.40;78.50;;;;;;5012643;28;20206;-83
2022/09/01 10:08:47;;;;;;;3.05;1.08;;;26.20;78.60;;;;;;5008839;28;20273;-82
2022/09/01 10:11:28;;;;;;;2.47;0.98;;;26.20;79.30;;;;;;5014183;28;20226;-81
2022/09/01 10:14:20;;;;;;;1.95;1.08;;;26.30;80.30;;;;;;5020276;28;20655;-83
2022/09/01 10:17:14;;;;;;;7.20;1.00;;;26.40;77.30;;;;;;5014558;28;20306;-82
2022/09/01 10:20:04;;;;;;;4.78;1.20;;;26.50;78.30;;;;;;5028091;28;20688;-86
2022/09/01 10:22:34;;;;;;;2.47;1.08;;;26.50;78.20;;;;;;5032716;28;20308;-80
2022/09/01 10:25:04;;;;;;;1.83;0.98;;;26.40;77.70;;;;;;5033076;28;20276;-84
2022/09/01 10:27:36;;;;;;;2.95;0.80;;;26.40;76.70;;;;;;5033250;28;20246;-84
2022/09/01 10:30:14;;;;;;;1.52;0.90;;;26.10;77.00;;;;;;5047996;28;20218;-79
2022/09/01 10:32:59;;;;;;;5.20;1.02;;;26.00;78.00;;;;;;5025985;28;20325;-79
2022/09/01 10:35:43;;;;;;;2.40;1.05;;;26.30;80.20;;;;;;5048578;28;20204;-84
2022/09/01 10:38:18;;;;;;;1.17;0.88;;;26.40;78.50;;;;;;5040185;28;20213;-86
2022/09/01 10:41:05;;;;;;;3.60;0.90;;;26.40;77.60;;;;;;5024075;28;20709;-84
2022/09/01 10:43:50;;;;;;;4.05;0.90;;;26.50;78.10;;;;;;5027497;28;20289;-85
2022/09/01 10:46:18;;;;;;;1.90;1.45;;;26.60;77.20;;;;;;5027822;28;20224;-84
2022/09/01 10:48:57;;;;;;;1.17;1.08;;;26.70;77.50;;;;;;5032369;28;20209;-84
2022/09/01 10:51:29;;;;;;;1.75;0.90;;;26.60;76.70;;;;;;5032050;28;20238;-83
2022/09/01 10:54:05;;;;;;;1.40;0.70;;;26.60;77.60;;;;;;5027800;28;20328;-84
2022/09/01 10:56:48;;;;;;;2.15;0.80;;;26.80;78.20;;;;;;5032209;28;20288;-84
2022/09/01 10:59:32;;;;;;;1.92;0.80;;;26.80;77.40;;;;;;5031845;28;20200;-84
2022/09/01 11:02:16;;;;;;;1.10;1.00;;;26.60;78.90;;;;;;5031740;28;20214;-81
2022/09/01 11:04:58;;;;;;;2.88;1.00;;;26.40;79.80;;;;;;5012966;28;20260;-86
2022/09/01 11:07:34;;;;;;;2.60;1.13;;;26.30;79.00;;;;;;5016594;28;20230;-85
2022/09/01 11:10:32;;;;;;;2.05;1.17;;;26.00;78.60;;;;;;5019222;28;20560;-82
2022/09/01 11:13:31;;;;;;;2.60;0.98;;;25.70;79.80;;;;;;5040758;28;20201;-82
2022/09/01 11:16:32;;;;;;;1.90;1.20;;;25.40;80.40;;;;;;5048065;28;20235;-82
2022/09/01 11:19:38;;;;;;;2.35;0.90;;;25.60;81.30;;;;;;5048203;28;20305;-84
2022/09/01 11:22:24;;;;;;;2.67;0.90;;;25.70;78.60;;;;;;5052408;28;20300;-83
2022/09/01 11:25:07;;;;;;;1.10;0.93;;;25.80;77.70;;;;;;5036163;28;20224;-83
2022/09/01 11:27:47;;;;;;;2.53;1.20;;;26.00;78.20;;;;;;5040775;28;20222;-84
2022/09/01 11:30:23;;;;;;;1.88;1.10;;;26.10;78.30;;;;;;5033323;28;20546;-85
2022/09/01 11:32:59;;;;;;;2.90;1.15;;;26.20;79.20;;;;;;5055518;28;20197;-84
2022/09/01 11:35:30;;;;;;;1.65;0.90;;;26.50;80.20;;;;;;5058684;28;20388;-84
2022/09/01 11:38:06;;;;;;;2.25;1.10;;;26.60;80.80;;;;;;5034425;28;20214;-83
2022/09/01 11:40:35;;;;;;;4.20;1.50;;;26.70;80.20;;;;;;5038704;28;20209;-85
2022/09/01 11:43:07;;;;;;;3.88;1.02;;;26.80;78.30;;;;;;5038129;28;20190;-83
2022/09/01 11:45:53;;;;;;;1.92;1.05;;;26.90;77.60;;;;;;5042450;28;20201;-84
2022/09/01 11:48:20;;;;;;;1.13;0.90;;;27.00;78.20;;;;;;5024267;28;20197;-83
2022/09/01 11:51:01;;;;;;;1.20;0.90;;;27.30;79.30;;;;;;5030380;28;20232;-84
2022/09/01 11:53:29;;;;;;;2.08;0.93;;;27.30;75.50;;;;;;5044077;28;20215;-84
2022/09/01 11:56:20;;;;;;;3.05;1.30;;;27.10;73.80;;;;;;5041161;28;20209;-83
2022/09/01 11:58:47;;;;;;;4.88;1.02;;;26.70;73.30;;;;;;5046417;28;20240;-85
2022/09/01 12:01:19;;;;;;;2.88;1.20;;;26.50;73.60;;;;;;5040120;28;20267;-85
2022/09/01 12:03:51;;;;;;;1.95;1.00;;;26.70;73.70;;;;;;5036762;28;20202;-85
2022/09/01 12:06:23;;;;;;;3.60;1.20;;;26.80;72.90;;;;;;5046134;28;20236;-84
2022/09/01 12:09:04;;;;;;;2.53;1.00;;;26.90;73.10;;;;;;5044545;28;20202;-85
2022/09/01 12:11:37;;;;;;;3.05;1.10;;;26.90;74.20;;;;;;5018799;28;20614;-85
2022/09/01 12:14:07;;;;;;;3.85;1.00;;;27.00;74.00;;;;;;5015320;28;20238;-83
2022/09/01 12:16:40;;;;;;;4.03;1.00;;;27.10;73.70;;;;;;5009677;28;20229;-83
2022/09/01 12:19:26;;;;;;;1.45;0.90;;;27.10;75.00;;;;;;5029306;28;20197;-85
2022/09/01 12:22:15;;;;;;;2.55;0.95;;;27.20;73.80;;;;;;5024572;28;20590;-83
2022/09/01 12:24:53;;;;;;;1.90;1.05;;;27.30;74.00;;;;;;5037688;28;20686;-85
2022/09/01 12:27:29;;;;;;;1.55;0.77;;;27.40;75.00;;;;;;5032168;28;20727;-84
2022/09/01 12:29:57;;;;;;;3.38;0.98;;;27.60;74.70;;;;;;5041306;28;20251;-84
2022/09/01 12:32:27;;;;;;;1.13;0.80;;;27.70;72.70;;;;;;5025553;28;20255;-85
2022/09/01 12:35:03;;;;;;;3.20;0.90;;;27.70;71.70;;;;;;5016987;28;20214;-85
2022/09/01 12:37:38;;;;;;;3.30;1.10;;;27.80;70.20;;;;;;5016772;28;20226;-86
2022/09/01 12:40:40;;;;;;;4.85;1.70;;;27.70;70.40;;;;;;5031064;28;20198;-85
2022/09/01 12:43:07;;;;;;;1.02;0.93;;;27.70;70.10;;;;;;5030688;28;20259;-86
2022/09/01 12:45:46;;;;;;;1.20;1.00;;;27.60;70.20;;;;;;5024372;28;20208;-84
2022/09/01 12:48:29;;;;;;;5.95;1.50;;;27.60;70.40;;;;;;5010329;28;20214;-85
2022/09/01 12:51:01;;;;;;;4.18;1.13;;;27.70;70.10;;;;;;5002922;28;20240;-85
2022/09/01 12:53:31;;;;;;;5.57;1.30;;;27.60;71.20;;;;;;5005943;28;20205;-85
2022/09/01 12:56:32;;;;;;;4.43;1.00;;;27.50;70.30;;;;;;5023563;28;20289;-85
2022/09/01 12:59:21;;;;;;;4.38;0.93;;;27.60;69.90;;;;;;5012753;28;20682;-84
2022/09/01 13:02:26;;;;;;;4.32;1.17;;;27.50;71.90;;;;;;5002233;28;20586;-84
2022/09/01 13:04:53;;;;;;;3.20;1.00;;;27.40;70.40;;;;;;5040762;28;20205;-85
2022/09/01 13:07:23;;;;;;;2.72;0.90;;;27.40;72.20;;;;;;5030926;28;20214;-86
2022/09/01 13:09:50;;;;;;;2.30;0.82;;;27.40;71.40;;;;;;5022920;28;20209;-83
2022/09/01 13:12:20;;;;;;;2.20;0.93;;;27.50;71.60;;;;;;5026103;28;20225;-83
2022/09/01 13:14:47;;;;;;;2.10;0.90;;;27.60;72.20;;;;;;5026408;28;20206;-84
2022/09/01 13:17:15;;;;;;;3.38;0.90;;;27.70;70.50;;;;;;5013281;28;20206;-84
2022/09/01 13:19:44;;;;;;;1.75;1.00;;;27.50;69.60;;;;;;5023215;28;20696;-82
2022/09/01 13:22:11;;;;;;;1.42;0.88;;;27.30;69.60;;;;;;5028902;28;20308;-85
2022/09/01 13:24:40;;;;;;;2.55;0.90;;;;;;;;;;5029606;28;20206;-86
2022/09/01 13:27:09;;;;;;;8.57;1.80;;;27.70;94.00;;;;;;5031505;28;20706;-88
2022/09/01 13:29:53;;;;;;;16.35;2.25;;;27.60;92.30;;;;;;5024877;28;20218;-84
2022/09/01 13:32:21;;;;;;;4.07;1.20;;;27.40;90.70;;;;;;5034710;28;20234;-84
2022/09/01 13:34:52;;;;;;;2.10;1.00;;;27.50;91.00;;;;;;5027117;28;20213;-83